Time;durP1;ratioP1;P1;durP2;ratioP2;P2;SDS_P1;SDS_P2;PMS_P1;PMS_P2;Temp;Humidity;BMP_temperature;BMP_pressure;BME280_temperature;BME280_humidity;BME280_pressure;Samples;Min_cycle;Max_cycle;Signal;HPM_P1;HPM_P2
2022/04/13 06:13:54;;;;;;;;;5.25;3.25;;;;;18.52;52.56;101195.13;5113734;27;45418;-80
2022/04/13 06:16:19;;;;;;;;;5.25;4.00;;;;;18.70;53.10;101206.19;5101119;27;45591;-80
2022/04/13 06:18:45;;;;;;;;;4.25;3.25;;;;;18.99;52.97;101197.56;5102533;27;45758;-77
2022/04/13 06:21:10;;;;;;;;;7.00;3.00;;;;;19.36;52.30;101204.44;5120819;27;45608;-73
2022/04/13 06:23:36;;;;;;;;;8.25;3.50;;;;;19.79;51.40;101213.41;5105849;27;53058;-82
2022/04/13 06:26:01;;;;;;;;;4.00;4.00;;;;;20.21;50.68;101207.13;5102493;27;45481;-82
2022/04/13 06:28:27;;;;;;;;;5.00;5.00;;;;;20.61;50.34;101209.97;5102468;27;45987;-84
2022/04/13 06:30:52;;;;;;;;;3.50;3.50;;;;;21.05;49.79;101217.75;5107733;27;45344;-80
2022/04/13 06:33:18;;;;;;;;;5.33;3.67;;;;;21.39;49.04;101208.38;5103444;27;46305;-83
2022/04/13 06:35:44;;;;;;;;;7.75;3.00;;;;;21.76;47.96;101218.47;5099921;27;45625;-81
2022/04/13 06:38:09;;;;;;;;;5.00;3.00;;;;;22.12;48.01;101234.03;5109103;27;45805;-81
2022/04/13 06:40:35;;;;;;;;;5.33;2.67;;;;;22.46;47.39;101255.09;5103747;27;45497;-81
2022/04/13 06:43:00;;;;;;;;;3.00;3.00;;;;;22.74;46.67;101255.16;5108207;27;45987;-79
2022/04/13 06:45:25;;;;;;;;;5.67;4.00;;;;;22.97;46.68;101257.41;5100242;27;45501;-82
2022/04/13 06:47:51;;;;;;;;;5.00;2.33;;;;;23.22;46.24;101257.66;5102342;27;45960;-80
2022/04/13 06:50:16;;;;;;;;;2.67;2.00;;;;;23.46;45.66;101268.94;5098561;27;45577;-79
2022/04/13 06:52:42;;;;;;;;;3.67;2.00;;;;;23.65;44.97;101274.19;5095879;27;47114;-79
2022/04/13 06:55:11;;;;;;;;;4.00;4.00;;;;;23.81;44.42;101273.47;5106768;27;45421;-78
2022/04/13 06:57:38;;;;;;;;;3.67;3.67;;;;;23.98;44.33;101279.00;5098007;27;45504;-80
2022/04/13 07:00:05;;;;;;;;;3.67;3.00;;;;;24.12;44.02;101280.31;5108583;27;45470;-76
2022/04/13 07:02:31;;;;;;;;;3.33;3.33;;;;;24.23;43.95;101283.78;5103456;27;46532;-79
2022/04/13 07:04:56;;;;;;;;;3.67;2.00;;;;;24.38;43.94;101292.16;5100961;27;45315;-82
2022/04/13 07:07:21;;;;;;;;;7.00;1.67;;;;;24.48;43.35;101288.31;5107689;27;45683;-84
2022/04/13 07:09:47;;;;;;;;;5.00;3.33;;;;;24.55;42.86;101291.22;5107253;27;45538;-78
2022/04/13 07:12:12;;;;;;;;;3.00;3.00;;;;;24.62;43.08;101286.00;5097124;27;46207;-82
2022/04/13 07:14:41;;;;;;;;;5.00;3.00;;;;;24.76;43.13;101299.97;5099182;27;45378;-81
2022/04/13 07:17:07;;;;;;;;;3.67;3.67;;;;;24.83;42.90;101299.19;5104143;27;45693;-83
2022/04/13 07:19:32;;;;;;;;;3.67;2.00;;;;;24.97;42.97;101315.88;5107498;27;45479;-83
2022/04/13 07:21:59;;;;;;;;;2.67;2.00;;;;;25.05;42.63;101305.00;5107089;27;45511;-82
2022/04/13 07:24:26;;;;;;;;;3.67;3.00;;;;;25.11;42.35;101300.78;5097532;27;45681;-81
2022/04/13 07:26:51;;;;;;;;;1.33;1.00;;;;;25.18;42.57;101304.53;5092452;27;45578;-82
2022/04/13 07:29:17;;;;;;;;;1.00;1.00;;;;;25.24;42.31;101303.03;5087890;27;45422;-85
2022/04/13 07:31:42;;;;;;;;;3.33;3.00;;;;;25.35;41.98;101315.44;5091013;27;46169;-76
2022/04/13 07:34:07;;;;;;;;;2.00;2.00;;;;;25.41;41.97;101316.66;5093462;27;49212;-76
2022/04/13 07:36:33;;;;;;;;;7.33;4.00;;;;;25.45;41.81;101315.28;5095821;27;45644;-75
2022/04/13 07:38:58;;;;;;;;;2.00;2.00;;;;;25.49;41.44;101311.22;5090231;27;45717;-75
2022/04/13 07:41:24;;;;;;;;;3.00;2.00;;;;;25.52;41.62;101313.59;5092775;27;45764;-76
2022/04/13 07:43:49;;;;;;;;;2.33;2.33;;;;;25.54;41.19;101319.72;5088853;27;45568;-75
2022/04/13 07:46:15;;;;;;;;;3.00;3.00;;;;;25.56;41.36;101317.72;5087898;27;45444;-76
2022/04/13 07:48:41;;;;;;;;;4.00;4.00;;;;;25.59;40.72;101316.53;5092007;27;45835;-77
2022/04/13 07:51:06;;;;;;;;;2.00;2.00;;;;;25.58;41.10;101325.72;5082694;27;46626;-78
2022/04/13 07:53:32;;;;;;;;;3.33;2.67;;;;;25.58;41.15;101315.66;5091669;27;45455;-78
2022/04/13 07:55:57;;;;;;;;;3.33;3.00;;;;;25.58;40.91;101320.28;5090282;27;45447;-82
2022/04/13 07:58:22;;;;;;;;;3.00;3.00;;;;;25.60;41.05;101321.81;5092492;27;45386;-81
2022/04/13 08:00:47;;;;;;;;;3.00;1.33;;;;;25.62;40.68;101319.75;5093588;27;45544;-81
2022/04/13 08:03:13;;;;;;;;;2.00;2.00;;;;;25.64;41.09;101328.59;5094917;27;45355;-81
2022/04/13 08:05:39;;;;;;;;;2.00;2.00;;;;;25.68;41.29;101339.97;5091865;27;45412;-80
2022/04/13 08:08:05;;;;;;;;;3.33;2.00;;;;;25.70;41.28;101334.38;5087411;27;45616;-79
2022/04/13 08:10:31;;;;;;;;;4.00;4.00;;;;;25.73;41.00;101350.34;5092522;27;46378;-79
2022/04/13 08:12:56;;;;;;;;;3.00;3.00;;;;;25.75;40.83;101348.31;5077061;27;45462;-78
2022/04/13 08:15:21;;;;;;;;;4.00;3.00;;;;;25.77;41.11;101348.97;5094183;27;45460;-79
2022/04/13 08:17:47;;;;;;;;;3.67;2.33;;;;;25.78;41.09;101347.97;5093468;27;45576;-77
2022/04/13 08:20:13;;;;;;;;;3.00;2.00;;;;;25.81;41.07;101355.78;5090812;27;45999;-77
2022/04/13 08:22:40;;;;;;;;;2.00;2.00;;;;;25.84;41.08;101357.31;5092421;27;47689;-76
2022/04/13 08:25:06;;;;;;;;;2.33;2.33;;;;;25.85;41.00;101357.16;5086612;27;45619;-76
2022/04/13 08:27:31;;;;;;;;;3.33;3.33;;;;;25.87;40.79;101360.53;5096443;27;46085;-80
2022/04/13 08:29:56;;;;;;;;;3.00;3.00;;;;;25.87;40.64;101365.97;5086614;27;45580;-77
2022/04/13 08:32:22;;;;;;;;;6.00;2.33;;;;;25.89;40.76;101371.25;5083660;27;45535;-79
2022/04/13 08:34:51;;;;;;;;;3.00;3.00;;;;;25.90;40.93;101378.38;5091911;27;45434;-75
2022/04/13 08:37:18;;;;;;;;;6.00;3.33;;;;;25.93;39.90;101380.78;5092262;27;45468;-76
2022/04/13 08:39:43;;;;;;;;;3.00;3.00;;;;;25.94;40.41;101387.06;5091541;27;46981;-76
2022/04/13 08:42:41;;;;;;;;;6.33;5.00;;;;;25.94;40.33;101389.81;5095030;27;45405;-76
2022/04/13 08:45:21;;;;;;;;;4.00;4.00;;;;;25.91;40.67;101391.81;5091916;27;45484;-77
2022/04/13 08:47:48;;;;;;;;;4.00;4.00;;;;;25.94;40.43;101397.97;5090118;27;45548;-78
2022/04/13 08:50:14;;;;;;;;;2.33;2.33;;;;;25.92;40.40;101398.94;5087304;27;45520;-73
2022/04/13 08:52:40;;;;;;;;;4.33;4.00;;;;;25.97;39.55;101408.47;5090494;27;46246;-74
2022/04/13 08:55:11;;;;;;;;;7.00;5.33;;;;;25.95;39.27;101411.38;5075506;27;45574;-74
2022/04/13 08:57:47;;;;;;;;;6.33;4.67;;;;;25.92;39.26;101411.72;5093392;27;45541;-77
2022/04/13 09:00:18;;;;;;;;;6.00;6.00;;;;;25.88;39.58;101427.50;5093068;27;45508;-76
2022/04/13 09:03:10;;;;;;;;;5.00;4.67;;;;;25.85;39.63;101432.44;5087374;27;45513;-77
2022/04/13 09:05:39;;;;;;;;;3.00;3.00;;;;;25.86;40.00;101423.25;5079119;27;45485;-79
2022/04/13 09:08:39;;;;;;;;;4.67;3.00;;;;;25.87;39.77;101423.09;5091288;27;45508;-76
2022/04/13 09:11:05;;;;;;;;;6.00;4.00;;;;;25.87;39.43;101433.97;5078189;27;46035;-77
2022/04/13 09:13:34;;;;;;;;;4.67;3.33;;;;;25.90;39.67;101436.34;5090656;27;45583;-80
2022/04/13 09:16:00;;;;;;;;;2.67;2.67;;;;;25.93;39.95;101435.16;5092750;27;45453;-76
2022/04/13 09:18:25;;;;;;;;;5.33;4.00;;;;;25.95;39.87;101441.28;5091337;27;45545;-81
2022/04/13 09:20:51;;;;;;;;;6.00;4.00;;;;;25.97;39.88;101439.25;5087539;27;45523;-79
2022/04/13 09:23:17;;;;;;;;;3.67;3.67;;;;;26.02;39.98;101449.63;5083838;27;45660;-78
2022/04/13 09:25:43;;;;;;;;;5.00;5.00;;;;;26.05;40.17;101452.00;5090128;27;46176;-74
2022/04/13 09:28:09;;;;;;;;;6.00;6.00;;;;;26.07;39.80;101452.69;5091425;27;45416;-78
2022/04/13 09:30:35;;;;;;;;;8.00;6.00;;;;;26.05;40.04;101452.88;5088854;27;46530;-80
2022/04/13 09:33:05;;;;;;;;;9.67;8.33;;;;;26.07;39.62;101454.56;5088654;27;45523;-81
2022/04/13 09:35:32;;;;;;;;;6.67;5.00;;;;;26.08;40.09;101454.41;5083429;27;45447;-80
2022/04/13 09:38:05;;;;;;;;;8.67;6.00;;;;;26.12;40.09;101454.91;5086259;27;45848;-78
2022/04/13 09:40:34;;;;;;;;;6.67;5.33;;;;;26.14;40.13;101459.16;5083939;27;46457;-78
2022/04/13 09:43:14;;;;;;;;;9.00;6.33;;;;;26.17;40.14;101460.69;5090041;27;45733;-77
2022/04/13 09:45:44;;;;;;;;;5.33;5.00;;;;;26.20;39.96;101460.38;5091402;27;45491;-76
2022/04/13 09:48:12;;;;;;;;;7.00;7.00;;;;;26.22;39.91;101455.59;5092059;27;45497;-76
2022/04/13 09:50:39;;;;;;;;;5.67;5.67;;;;;26.26;39.72;101458.84;5088315;27;45516;-77
2022/04/13 09:53:06;;;;;;;;;53.00;41.75;;;;;26.27;39.91;101458.69;5089111;27;45378;-79
2022/04/13 09:55:49;;;;;;;;;35.00;31.25;;;;;26.28;40.02;101451.38;5089281;27;45343;-84
2022/04/13 09:58:17;;;;;;;;;22.75;22.00;;;;;26.27;39.90;101452.38;5076164;27;45449;-83
2022/04/13 10:00:44;;;;;;;;;28.50;24.00;;;;;26.26;40.09;101454.25;5091128;27;45927;-82
2022/04/13 10:03:10;;;;;;;;;25.25;23.50;;;;;26.28;40.18;101452.22;5091683;27;45329;-83
2022/04/13 10:05:35;;;;;;;;;22.00;20.00;;;;;26.29;40.33;101450.34;5081994;27;45499;-81
2022/04/13 10:08:03;;;;;;;;;23.33;21.00;;;;;26.29;40.12;101448.47;5086547;27;45429;-84
2022/04/13 10:10:28;;;;;;;;;25.33;24.00;;;;;26.31;39.93;101451.03;5102010;27;48591;-84
2022/04/13 10:12:54;;;;;;;;;20.33;18.33;;;;;26.33;39.82;101445.41;5086689;27;45779;-84
2022/04/13 10:15:19;;;;;;;;;23.33;20.33;;;;;26.35;39.95;101446.94;5092894;27;45379;-84
2022/04/13 10:17:45;;;;;;;;;23.00;21.00;;;;;26.38;40.45;101445.75;5091965;27;45367;-82
2022/04/13 10:20:11;;;;;;;;;23.33;22.00;;;;;26.39;40.49;101442.84;5090429;27;46541;-80
2022/04/13 10:23:02;;;;;;;;;20.00;18.67;;;;;26.42;40.10;101438.94;5080150;27;45435;-78
2022/04/13 10:25:28;;;;;;;;;19.67;18.33;;;;;26.42;40.41;101436.22;5088107;27;50046;-79
2022/04/13 10:27:56;;;;;;;;;23.67;17.67;;;;;26.39;40.26;101440.13;5074470;27;45610;-84
2022/04/13 10:30:28;;;;;;;;;16.33;15.67;;;;;26.39;39.99;101442.84;5092733;27;45775;-85
2022/04/13 10:33:00;;;;;;;;;18.33;16.67;;;;;26.41;40.00;101443.53;5087978;27;45599;-83
2022/04/13 10:35:27;;;;;;;;;12.00;12.00;;;;;26.42;40.47;101452.56;5087880;27;45493;-83
2022/04/13 10:37:54;;;;;;;;;14.00;12.33;;;;;26.43;40.10;101444.22;5085241;27;45499;-83
2022/04/13 10:40:20;;;;;;;;;13.33;12.00;;;;;26.45;40.38;101441.34;5089451;27;45448;-82
2022/04/13 10:42:48;;;;;;;;;18.33;15.67;;;;;26.50;39.82;101443.53;5091045;27;45513;-80
2022/04/13 10:45:15;;;;;;;;;18.00;15.33;;;;;26.51;39.89;101450.66;5089341;27;45793;-81
2022/04/13 10:48:07;;;;;;;;;13.00;12.00;;;;;26.52;40.01;101455.94;5082383;27;46154;-78
2022/04/13 10:50:55;;;;;;;;;11.67;11.00;;;;;26.55;39.81;101452.03;5077587;27;45675;-78
2022/04/13 10:53:20;;;;;;;;;12.67;12.33;;;;;26.56;39.92;101453.72;5089132;27;45788;-78
2022/04/13 10:55:56;;;;;;;;;11.33;11.33;;;;;26.59;40.01;101458.84;5088915;27;45616;-78
2022/04/13 10:59:01;;;;;;;;;11.67;10.33;;;;;26.60;39.53;101446.09;5088155;27;45470;-78
2022/04/13 11:01:37;;;;;;;;;10.67;10.67;;;;;26.61;39.58;101451.34;5093415;27;45504;-79
2022/04/13 11:04:06;;;;;;;;;12.67;10.00;;;;;26.61;39.33;101455.94;5090755;27;45475;-79
2022/04/13 11:06:32;;;;;;;;;12.00;10.33;;;;;26.59;39.97;101447.94;5088953;27;45416;-78
2022/04/13 11:09:13;;;;;;;;;10.67;9.67;;;;;26.61;39.73;101447.78;5080185;27;45666;-78
2022/04/13 11:11:40;;;;;;;;;11.33;10.00;;;;;26.59;39.54;101439.78;5091534;27;46154;-78
2022/04/13 11:14:18;;;;;;;;;8.00;8.00;;;;;26.57;39.27;101445.38;5093007;27;45877;-78
2022/04/13 11:16:44;;;;;;;;;9.00;9.00;;;;;26.58;39.76;101451.69;5095261;27;45418;-78
2022/04/13 11:19:09;;;;;;;;;8.00;8.00;;;;;26.57;39.15;101447.28;5086621;27;46154;-78
2022/04/13 11:21:54;;;;;;;;;9.67;8.00;;;;;26.56;39.29;101457.31;5089186;27;46260;-79
2022/04/13 11:24:52;;;;;;;;;9.33;8.33;;;;;26.53;38.60;101457.63;5089579;27;45396;-80
2022/04/13 11:27:18;;;;;;;;;10.67;9.00;;;;;26.49;39.17;101460.88;5082143;27;45438;-79
2022/04/13 11:29:45;;;;;;;;;12.67;10.33;;;;;26.44;39.48;101464.97;5090552;27;45488;-77
2022/04/13 11:32:10;;;;;;;;;13.67;11.33;;;;;26.41;39.58;101453.59;5085848;27;49890;-75
2022/04/13 11:34:51;;;;;;;;;9.00;9.00;;;;;26.39;39.29;101452.88;5092903;27;45332;-79
2022/04/13 11:37:18;;;;;;;;;8.67;8.00;;;;;26.38;39.73;101448.47;5091443;27;45537;-78
2022/04/13 11:39:46;;;;;;;;;9.67;8.00;;;;;26.38;40.05;101441.16;5094072;27;45580;-77
2022/04/13 11:42:16;;;;;;;;;9.00;8.00;;;;;26.40;39.81;101436.38;5088382;27;46517;-73
2022/04/13 11:44:50;;;;;;;;;13.00;11.33;;;;;26.42;39.42;101433.50;5091912;27;45464;-74
2022/04/13 11:47:17;;;;;;;;;8.33;8.33;;;;;26.47;39.21;101447.44;5093952;27;45901;-73
2022/04/13 11:49:58;;;;;;;;;9.67;9.00;;;;;26.49;38.82;101461.75;5100587;27;45680;-73
2022/04/13 11:52:46;;;;;;;;;10.33;7.33;;;;;26.49;38.48;101459.03;5091689;27;45454;-73
2022/04/13 11:55:23;;;;;;;;;10.67;8.67;;;;;26.46;38.37;101459.34;5093575;27;45469;-73
2022/04/13 11:58:09;;;;;;;;;11.67;10.33;;;;;26.40;38.39;101457.34;5092707;27;45482;-73
2022/04/13 12:00:54;;;;;;;;;10.33;10.33;;;;;26.31;38.97;101460.03;5089979;27;45712;-73
2022/04/13 12:03:26;;;;;;;;;12.00;10.33;;;;;26.28;38.74;101459.53;5089635;27;46168;-74
2022/04/13 12:06:12;;;;;;;;;11.00;8.67;;;;;26.26;38.52;101465.16;5087953;27;45532;-74
2022/04/13 12:08:40;;;;;;;;;12.00;10.00;;;;;26.24;38.53;101467.13;5089170;27;45567;-72
2022/04/13 12:11:11;;;;;;;;;11.00;8.33;;;;;26.23;38.67;101459.16;5090141;27;45390;-75
2022/04/13 12:13:57;;;;;;;;;11.67;11.67;;;;;26.22;38.20;101469.19;5088710;27;45535;-74
2022/04/13 12:16:25;;;;;;;;;6.67;6.33;;;;;26.21;38.40;101472.06;5086645;27;45513;-78
2022/04/13 12:18:52;;;;;;;;;7.50;6.50;;;;;26.16;38.52;101462.56;5087767;27;46171;-80
2022/04/13 12:21:24;;;;;;;;;8.33;6.67;;;;;26.14;38.40;101463.75;5094489;27;45575;-83
2022/04/13 12:23:50;;;;;;;;;8.33;7.67;;;;;26.09;39.02;101469.69;5086836;27;45546;-87
2022/04/13 12:26:16;;;;;;;;;10.67;8.00;;;;;26.11;38.86;101473.09;5080339;27;45472;-85
2022/04/13 12:28:42;;;;;;;;;8.33;6.33;;;;;26.13;38.73;101472.94;5087089;27;45436;-81
2022/04/13 12:31:10;;;;;;;;;7.00;6.67;;;;;26.15;38.64;101471.75;5087368;27;45806;-82
2022/04/13 12:33:37;;;;;;;;;9.67;8.00;;;;;26.17;39.20;101480.56;5092211;27;47107;-82
2022/04/13 12:36:08;;;;;;;;;8.00;7.00;;;;;26.22;39.00;101487.38;5082715;27;45389;-82
2022/04/13 12:38:38;;;;;;;;;5.67;5.00;;;;;26.23;39.38;101489.94;5089509;27;45702;-82
2022/04/13 12:41:08;;;;;;;;;6.33;4.67;;;;;26.28;38.92;101497.63;5087092;27;45253;-81
2022/04/13 12:43:35;;;;;;;;;6.00;6.00;;;;;26.25;39.43;101489.81;5089674;27;46402;-77
2022/04/13 12:46:20;;;;;;;;;5.33;5.33;;;;;26.31;39.47;101491.84;5085297;27;45431;-79
2022/04/13 12:48:49;;;;;;;;;7.00;7.00;;;;;26.35;39.10;101490.47;5090769;27;45513;-79
2022/04/13 12:51:15;;;;;;;;;5.67;4.00;;;;;26.37;39.26;101488.47;5093354;27;45447;-75
2022/04/13 12:53:43;;;;;;;;;5.33;5.00;;;;;26.41;39.20;101495.25;5090404;27;46442;-79
2022/04/13 12:56:10;;;;;;;;;3.67;3.67;;;;;26.36;39.25;101497.63;5089204;27;45938;-79
2022/04/13 12:58:39;;;;;;;;;5.00;5.00;;;;;26.40;39.31;101504.44;5090139;27;45508;-77
2022/04/13 13:01:05;;;;;;;;;6.67;4.67;;;;;26.41;39.41;101497.97;5088773;27;45688;-82
2022/04/13 13:03:40;;;;;;;;;7.33;7.33;;;;;26.42;39.49;101502.41;5090742;27;45411;-79
2022/04/13 13:06:10;;;;;;;;;8.00;5.00;;;;;26.42;39.27;101491.53;5092895;27;45538;-78
2022/04/13 13:08:36;;;;;;;;;6.00;4.33;;;;;26.43;39.82;101501.38;5087816;27;45624;-80
2022/04/13 13:11:08;;;;;;;;;3.00;3.00;;;;;26.46;39.95;101502.91;5089139;27;46122;-80
2022/04/13 13:13:38;;;;;;;;;6.67;4.00;;;;;26.45;39.50;101498.50;5088734;27;46279;-81
2022/04/13 13:16:04;;;;;;;;;4.67;4.00;;;;;26.46;39.78;101499.31;5074153;27;45379;-77
2022/04/13 13:18:29;;;;;;;;;7.00;7.00;;;;;26.47;39.62;101492.84;5093893;27;45405;-83
2022/04/13 13:20:57;;;;;;;;;3.33;2.67;;;;;26.54;39.99;101502.91;5089455;27;45528;-76
2022/04/13 13:23:30;;;;;;;;;5.67;5.00;;;;;26.50;39.92;101498.81;5088146;27;45600;-80
2022/04/13 13:25:57;;;;;;;;;8.00;5.00;;;;;26.52;39.78;101490.50;5108321;27;45336;-80
2022/04/13 13:28:24;;;;;;;;;2.33;1.67;;;;;26.59;39.77;101499.66;5089734;27;45700;-77
2022/04/13 13:30:52;;;;;;;;;3.00;3.00;;;;;26.56;39.57;101500.84;5089503;27;45563;-79
2022/04/13 13:33:19;;;;;;;;;6.00;5.00;;;;;26.59;39.96;101494.22;5086969;27;47356;-77
2022/04/13 13:35:45;;;;;;;;;4.00;3.00;;;;;26.62;39.80;101496.63;5090757;27;45498;-78
2022/04/13 13:38:13;;;;;;;;;3.67;3.67;;;;;26.68;39.87;101508.66;5091119;27;47086;-77
2022/04/13 13:40:41;;;;;;;;;4.00;4.00;;;;;26.69;39.83;101505.78;5087447;27;45563;-77
2022/04/13 13:43:15;;;;;;;;;4.50;4.50;;;;;26.67;40.11;101502.38;5090554;27;46290;-78
2022/04/13 13:45:50;;;;;;;;;4.00;4.00;;;;;26.69;39.92;101496.78;5089076;27;45538;-77
2022/04/13 13:48:26;;;;;;;;;4.67;4.67;;;;;26.64;39.57;101488.28;5095696;27;45482;-79
2022/04/13 13:50:56;;;;;;;;;3.00;3.00;;;;;26.67;39.88;101494.22;5085722;27;45603;-82
2022/04/13 13:53:29;;;;;;;;;3.67;3.67;;;;;26.69;39.69;101481.28;5090697;27;46169;-81
2022/04/13 13:55:55;;;;;;;;;3.00;2.00;;;;;26.71;40.37;101478.38;5089802;27;45454;-83
2022/04/13 13:58:20;;;;;;;;;4.00;3.33;;;;;26.73;40.05;101470.03;5089820;27;45843;-86
2022/04/13 14:00:47;;;;;;;;;5.33;4.00;;;;;26.74;40.04;101471.75;5088246;27;45264;-87
2022/04/13 14:03:13;;;;;;;;;2.00;2.00;;;;;26.76;40.23;101472.44;5089607;27;46176;-84
2022/04/13 14:05:40;;;;;;;;;4.67;4.67;;;;;26.75;39.80;101479.75;5088886;27;45543;-79
2022/04/13 14:08:08;;;;;;;;;7.00;5.00;;;;;26.83;40.28;101493.34;5087843;27;45572;-80
2022/04/13 14:10:34;;;;;;;;;7.33;3.67;;;;;26.83;40.30;101490.63;5087347;27;45494;-80
2022/04/13 14:13:00;;;;;;;;;3.00;2.00;;;;;26.82;39.82;101490.78;5084662;27;46369;-80
2022/04/13 14:15:26;;;;;;;;;3.67;3.67;;;;;26.81;40.40;101475.50;5090902;27;45697;-80
2022/04/13 14:17:52;;;;;;;;;2.00;2.00;;;;;26.88;40.42;101486.50;5088230;27;45564;-84
2022/04/13 14:20:18;;;;;;;;;4.00;2.33;;;;;26.87;39.96;101479.38;5086045;27;46051;-87
2022/04/13 14:22:45;;;;;;;;;6.00;3.00;;;;;26.88;40.30;101484.66;5101705;27;48030;-87
2022/04/13 14:25:12;;;;;;;;;2.00;2.00;;;;;26.89;39.87;101483.63;5104414;27;45522;-85
2022/04/13 14:27:38;;;;;;;;;6.67;4.00;;;;;26.90;39.34;101479.03;5089188;27;45854;-75
2022/04/13 14:30:12;;;;;;;;;8.00;5.67;;;;;26.92;38.70;101483.28;5091444;27;45851;-74
2022/04/13 14:32:39;;;;;;;;;4.00;4.00;;;;;26.92;39.33;101482.41;5086696;27;45716;-73
2022/04/13 14:35:09;;;;;;;;;6.00;5.00;;;;;26.84;39.01;101475.97;5088505;27;45799;-78
2022/04/13 14:37:35;;;;;;;;;6.00;4.33;;;;;26.80;39.43;101481.94;5093064;27;45600;-80
2022/04/13 14:40:02;;;;;;;;;4.33;4.33;;;;;26.76;38.91;101477.88;5093953;27;45638;-78
2022/04/13 14:42:28;;;;;;;;;7.00;7.00;;;;;26.73;39.02;101480.94;5095062;27;45713;-78
2022/04/13 14:44:53;;;;;;;;;4.67;4.00;;;;;26.69;39.72;101475.81;5092684;27;45581;-78
2022/04/13 14:47:21;;;;;;;;;5.33;5.00;;;;;26.69;39.61;101470.38;5090958;27;45848;-81
2022/04/13 14:49:46;;;;;;;;;8.00;4.67;;;;;26.70;39.19;101465.81;5091808;27;45450;-81
2022/04/13 14:52:13;;;;;;;;;6.00;4.67;;;;;26.74;39.49;101459.00;5092852;27;45855;-84
2022/04/13 14:54:38;;;;;;;;;5.00;5.00;;;;;26.74;39.39;101460.84;5093634;27;45394;-82
2022/04/13 14:57:04;;;;;;;;;4.67;4.00;;;;;26.75;39.97;101460.69;5087787;27;45535;-80
2022/04/13 14:59:29;;;;;;;;;3.00;3.00;;;;;26.74;39.94;101455.41;5088574;27;45446;-82
2022/04/13 15:01:54;;;;;;;;;4.00;2.33;;;;;26.79;39.01;101464.75;5091475;27;45512;-80
2022/04/13 15:04:21;;;;;;;;;4.33;4.33;;;;;26.76;38.20;101467.00;5094385;27;45508;-75
2022/04/13 15:06:47;;;;;;;;;4.33;4.33;;;;;26.71;38.40;101467.50;5093923;27;45652;-79
2022/04/13 15:09:12;;;;;;;;;5.33;5.33;;;;;26.67;38.55;101464.28;5090399;27;45579;-77
2022/04/13 15:11:38;;;;;;;;;5.00;5.00;;;;;26.66;39.09;101468.03;5083824;27;46466;-81
2022/04/13 15:14:04;;;;;;;;;6.67;5.00;;;;;26.64;39.09;101467.34;5082570;27;46570;-79
2022/04/13 15:16:34;;;;;;;;;5.00;5.00;;;;;26.66;39.24;101470.75;5092200;27;45423;-79
2022/04/13 15:19:00;;;;;;;;;4.33;3.67;;;;;26.72;39.38;101468.34;5093586;27;45448;-78
2022/04/13 15:21:26;;;;;;;;;4.00;4.00;;;;;26.73;38.97;101464.59;5091141;27;46346;-79
2022/04/13 15:23:51;;;;;;;;;3.00;3.00;;;;;26.76;38.90;101472.44;5092977;27;48276;-79
2022/04/13 15:26:17;;;;;;;;;4.33;4.00;;;;;26.78;39.67;101464.94;5085326;27;45418;-78
2022/04/13 15:28:43;;;;;;;;;5.00;4.00;;;;;26.79;39.02;101469.34;5083621;27;45544;-78
2022/04/13 15:31:09;;;;;;;;;5.67;4.33;;;;;26.84;38.80;101478.72;5092043;27;45429;-77
2022/04/13 15:33:34;;;;;;;;;5.00;3.67;;;;;26.86;38.99;101474.94;5096140;27;45360;-78
2022/04/13 15:36:00;;;;;;;;;4.33;4.00;;;;;26.84;39.13;101464.22;5092022;27;45324;-79
2022/04/13 15:38:26;;;;;;;;;6.00;4.00;;;;;26.89;39.42;101480.91;5089145;27;45393;-77
2022/04/13 15:40:53;;;;;;;;;3.00;3.00;;;;;26.88;38.94;101479.19;5088817;27;46173;-75
2022/04/13 15:43:20;;;;;;;;;3.00;3.00;;;;;26.86;38.94;101478.53;5091913;27;45585;-76
2022/04/13 15:45:46;;;;;;;;;4.33;3.00;;;;;26.90;39.53;101481.75;5094588;27;45620;-76
2022/04/13 15:48:12;;;;;;;;;4.00;4.00;;;;;26.89;39.60;101483.63;5093004;27;45523;-73
2022/04/13 15:50:42;;;;;;;;;4.33;3.33;;;;;26.91;38.97;101497.94;5092569;27;45470;-76
2022/04/13 15:53:09;;;;;;;;;5.00;5.00;;;;;26.94;39.32;101499.50;5092497;27;45517;-77
2022/04/13 15:55:35;;;;;;;;;5.33;5.00;;;;;26.93;39.23;101498.63;5084101;27;45416;-76
2022/04/13 15:58:01;;;;;;;;;5.00;3.67;;;;;26.94;39.28;101504.94;5092539;27;45493;-78
2022/04/13 16:00:28;;;;;;;;;5.67;5.67;;;;;26.95;39.45;101498.47;5095825;27;45927;-74
2022/04/13 16:02:54;;;;;;;;;5.33;4.33;;;;;26.96;39.57;101497.44;5087747;27;45525;-77
2022/04/13 16:05:19;;;;;;;;;4.00;4.00;;;;;26.95;39.82;101495.75;5088109;27;45571;-77
2022/04/13 16:07:50;;;;;;;;;4.67;4.00;;;;;26.96;39.55;101497.44;5090755;27;45447;-74
2022/04/13 16:10:25;;;;;;;;;8.67;7.00;;;;;26.97;38.40;101501.84;5091297;27;46185;-76
2022/04/13 16:12:52;;;;;;;;;6.33;4.00;;;;;26.97;37.81;101510.00;5087295;27;45518;-77
2022/04/13 16:15:18;;;;;;;;;6.00;6.00;;;;;26.92;38.24;101501.47;5092467;27;45509;-78
2022/04/13 16:17:44;;;;;;;;;5.33;5.33;;;;;26.91;38.35;101507.97;5089332;27;45496;-78
2022/04/13 16:20:11;;;;;;;;;7.33;6.67;;;;;26.90;38.40;101498.09;5086215;27;45543;-77
2022/04/13 16:22:38;;;;;;;;;6.00;5.67;;;;;26.87;38.56;101496.56;5084683;27;45496;-77
2022/04/13 16:25:04;;;;;;;;;6.00;4.67;;;;;26.92;38.75;101496.91;5091558;27;45328;-75
2022/04/13 16:27:29;;;;;;;;;4.00;4.00;;;;;26.90;38.98;101498.97;5094722;27;45363;-71
2022/04/13 16:29:55;;;;;;;;;4.33;4.33;;;;;26.95;38.58;101504.78;5090206;27;45502;-71
2022/04/13 16:32:20;;;;;;;;;6.00;4.67;;;;;26.94;38.69;101494.03;5089515;27;45657;-74
2022/04/13 16:34:46;;;;;;;;;3.33;3.33;;;;;26.94;39.09;101502.22;5090128;27;45473;-74
2022/04/13 16:37:11;;;;;;;;;4.33;3.67;;;;;26.93;38.67;101498.63;5087586;27;45542;-72
2022/04/13 16:39:36;;;;;;;;;4.00;4.00;;;;;26.95;38.83;101496.59;5096161;27;46383;-75
2022/04/13 16:42:02;;;;;;;;;5.33;4.00;;;;;26.99;38.66;101512.56;5090983;27;45671;-75
2022/04/13 16:44:27;;;;;;;;;5.33;5.00;;;;;26.96;39.10;101517.34;5090131;27;45604;-74
2022/04/13 16:46:53;;;;;;;;;6.67;3.67;;;;;26.97;38.71;101518.19;5093830;27;45504;-73
2022/04/13 16:49:18;;;;;;;;;4.67;4.67;;;;;26.99;37.26;101512.56;5091292;27;46551;-73
2022/04/13 16:51:44;;;;;;;;;4.00;4.00;;;;;26.95;37.88;101518.38;5086340;27;45754;-73
2022/04/13 16:54:12;;;;;;;;;8.00;6.00;;;;;26.86;37.31;101504.91;5082538;27;45547;-77
2022/04/13 16:56:38;;;;;;;;;5.00;5.00;;;;;26.78;37.50;101506.63;5081154;27;45635;-78
2022/04/13 16:59:04;;;;;;;;;5.00;5.00;;;;;26.78;37.88;101516.66;5088872;27;45529;-79
2022/04/13 17:01:31;;;;;;;;;5.33;4.67;;;;;26.66;37.99;101505.28;5090493;27;45520;-79
2022/04/13 17:03:57;;;;;;;;;7.33;7.00;;;;;26.65;38.29;101512.59;5091502;27;45481;-78
2022/04/13 17:06:22;;;;;;;;;5.00;5.00;;;;;26.66;38.61;101511.59;5089137;27;45725;-78
2022/04/13 17:08:48;;;;;;;;;4.67;4.67;;;;;26.66;38.34;101505.28;5090292;27;46067;-76
2022/04/13 17:11:14;;;;;;;;;5.67;5.00;;;;;26.70;38.42;101514.81;5091570;27;45498;-74
2022/04/13 17:13:40;;;;;;;;;8.67;6.00;;;;;26.70;38.80;101512.09;5088896;27;45441;-76
2022/04/13 17:16:06;;;;;;;;;5.00;5.00;;;;;26.69;38.52;101511.22;5090121;27;45421;-76
2022/04/13 17:18:31;;;;;;;;;5.00;4.00;;;;;26.74;38.54;101515.31;5089656;27;47928;-75
2022/04/13 17:20:57;;;;;;;;;5.00;4.00;;;;;26.78;37.81;101522.97;5090403;27;45273;-73
2022/04/13 17:23:22;;;;;;;;;4.00;4.00;;;;;26.75;38.23;101525.16;5090764;27;45453;-72
2022/04/13 17:25:48;;;;;;;;;5.67;4.33;;;;;26.75;38.41;101530.63;5089796;27;45510;-75
2022/04/13 17:28:13;;;;;;;;;4.00;4.00;;;;;26.75;38.29;101526.03;5090544;27;49145;-75
2022/04/13 17:30:38;;;;;;;;;5.33;4.00;;;;;26.79;38.66;101537.44;5091551;27;45718;-75
2022/04/13 17:33:06;;;;;;;;;3.00;3.00;;;;;26.79;38.26;101541.00;5091461;27;45741;-74
2022/04/13 17:35:32;;;;;;;;;3.00;3.00;;;;;26.79;38.32;101540.16;5087845;27;45511;-74
2022/04/13 17:37:58;;;;;;;;;5.00;4.00;;;;;26.83;38.45;101544.22;5089623;27;45789;-75
2022/04/13 17:40:23;;;;;;;;;5.33;4.00;;;;;26.83;38.68;101556.00;5090294;27;45441;-73